sensor_id;sensor_type;location;lat;lon;timestamp;P1;durP1;ratioP1;P2;durP2;ratioP2
38879;SDS011;25887;30.194;-97.880;2023-05-19T00:02:25;1.33;;;1.23;;
38879;SDS011;25887;30.194;-97.880;2023-05-19T00:04:51;1.55;;;1.30;;
38879;SDS011;25887;30.194;-97.880;2023-05-19T00:07:17;2.17;;;1.27;;
38879;SDS011;25887;30.194;-97.880;2023-05-19T00:09:46;2.13;;;1.40;;
38879;SDS011;25887;30.194;-97.880;2023-05-19T00:12:12;1.30;;;1.20;;
38879;SDS011;25887;30.194;-97.880;2023-05-19T00:14:42;1.20;;;1.10;;
38879;SDS011;25887;30.194;-97.880;2023-05-19T00:17:08;1.55;;;1.30;;
38879;SDS011;25887;30.194;-97.880;2023-05-19T00:19:35;1.45;;;1.30;;
38879;SDS011;25887;30.194;-97.880;2023-05-19T00:22:02;2.22;;;1.48;;
38879;SDS011;25887;30.194;-97.880;2023-05-19T00:24:28;2.38;;;1.20;;
38879;SDS011;25887;30.194;-97.880;2023-05-19T00:26:55;1.08;;;0.95;;
38879;SDS011;25887;30.194;-97.880;2023-05-19T00:29:21;4.32;;;1.20;;
38879;SDS011;25887;30.194;-97.880;2023-05-19T00:31:47;1.30;;;1.20;;
38879;SDS011;25887;30.194;-97.880;2023-05-19T00:34:13;2.75;;;1.30;;
38879;SDS011;25887;30.194;-97.880;2023-05-19T00:36:39;1.60;;;1.10;;
38879;SDS011;25887;30.194;-97.880;2023-05-19T00:39:06;1.95;;;1.30;;
38879;SDS011;25887;30.194;-97.880;2023-05-19T00:41:32;2.70;;;1.20;;
38879;SDS011;25887;30.194;-97.880;2023-05-19T00:43:58;2.28;;;1.17;;
38879;SDS011;25887;30.194;-97.880;2023-05-19T00:46:25;1.17;;;1.08;;
38879;SDS011;25887;30.194;-97.880;2023-05-19T00:48:51;1.30;;;1.20;;
38879;SDS011;25887;30.194;-97.880;2023-05-19T00:51:17;3.20;;;1.20;;
38879;SDS011;25887;30.194;-97.880;2023-05-19T00:53:43;1.20;;;1.00;;
38879;SDS011;25887;30.194;-97.880;2023-05-19T00:56:13;2.40;;;1.15;;
38879;SDS011;25887;30.194;-97.880;2023-05-19T00:58:43;1.58;;;1.20;;
38879;SDS011;25887;30.194;-97.880;2023-05-19T01:04:04;1.52;;;1.20;;
38879;SDS011;25887;30.194;-97.880;2023-05-19T01:06:34;4.05;;;1.20;;
38879;SDS011;25887;30.194;-97.880;2023-05-19T01:09:04;1.50;;;1.10;;
38879;SDS011;25887;30.194;-97.880;2023-05-19T01:11:30;1.55;;;1.30;;
38879;SDS011;25887;30.194;-97.880;2023-05-19T01:13:56;4.47;;;1.60;;
38879;SDS011;25887;30.194;-97.880;2023-05-19T01:24:56;4.43;;;1.38;;
38879;SDS011;25887;30.194;-97.880;2023-05-19T01:32:59;1.60;;;1.30;;
38879;SDS011;25887;30.194;-97.880;2023-05-19T01:35:28;3.63;;;1.23;;
38879;SDS011;25887;30.194;-97.880;2023-05-19T01:37:56;3.78;;;1.27;;
38879;SDS011;25887;30.194;-97.880;2023-05-19T01:40:24;2.40;;;1.20;;
38879;SDS011;25887;30.194;-97.880;2023-05-19T01:42:52;2.83;;;1.40;;
38879;SDS011;25887;30.194;-97.880;2023-05-19T01:45:20;4.70;;;1.40;;
38879;SDS011;25887;30.194;-97.880;2023-05-19T01:47:49;1.35;;;1.20;;
38879;SDS011;25887;30.194;-97.880;2023-05-19T01:50:20;6.78;;;1.20;;
38879;SDS011;25887;30.194;-97.880;2023-05-19T01:52:46;2.53;;;1.20;;
38879;SDS011;25887;30.194;-97.880;2023-05-19T01:55:12;4.53;;;1.20;;
38879;SDS011;25887;30.194;-97.880;2023-05-19T01:57:44;1.55;;;1.45;;
38879;SDS011;25887;30.194;-97.880;2023-05-19T02:00:34;3.38;;;1.42;;
38879;SDS011;25887;30.194;-97.880;2023-05-19T02:03:25;1.70;;;1.05;;
38879;SDS011;25887;30.194;-97.880;2023-05-19T02:06:17;2.15;;;1.45;;
38879;SDS011;25887;30.194;-97.880;2023-05-19T02:08:56;2.80;;;1.27;;
38879;SDS011;25887;30.194;-97.880;2023-05-19T02:11:38;2.15;;;1.42;;
38879;SDS011;25887;30.194;-97.880;2023-05-19T02:14:19;1.90;;;1.30;;
38879;SDS011;25887;30.194;-97.880;2023-05-19T02:16:57;1.70;;;1.30;;
38879;SDS011;25887;30.194;-97.880;2023-05-19T02:19:25;2.10;;;1.45;;
38879;SDS011;25887;30.194;-97.880;2023-05-19T02:21:52;2.67;;;1.33;;
38879;SDS011;25887;30.194;-97.880;2023-05-19T02:24:19;1.83;;;1.40;;
38879;SDS011;25887;30.194;-97.880;2023-05-19T02:26:47;2.05;;;1.38;;
38879;SDS011;25887;30.194;-97.880;2023-05-19T02:29:17;2.58;;;1.52;;
38879;SDS011;25887;30.194;-97.880;2023-05-19T02:31:44;3.97;;;1.33;;
38879;SDS011;25887;30.194;-97.880;2023-05-19T02:34:11;2.90;;;1.33;;
38879;SDS011;25887;30.194;-97.880;2023-05-19T02:36:38;2.13;;;1.30;;
38879;SDS011;25887;30.194;-97.880;2023-05-19T02:39:07;4.80;;;1.52;;
38879;SDS011;25887;30.194;-97.880;2023-05-19T02:41:37;4.38;;;1.35;;
38879;SDS011;25887;30.194;-97.880;2023-05-19T02:44:03;4.85;;;1.60;;
38879;SDS011;25887;30.194;-97.880;2023-05-19T02:46:30;2.35;;;1.60;;
38879;SDS011;25887;30.194;-97.880;2023-05-19T02:48:56;3.90;;;1.88;;
38879;SDS011;25887;30.194;-97.880;2023-05-19T02:51:22;7.13;;;1.63;;
38879;SDS011;25887;30.194;-97.880;2023-05-19T02:53:48;3.72;;;1.73;;
38879;SDS011;25887;30.194;-97.880;2023-05-19T02:56:15;3.47;;;1.90;;
38879;SDS011;25887;30.194;-97.880;2023-05-19T02:58:41;5.47;;;2.10;;
38879;SDS011;25887;30.194;-97.880;2023-05-19T03:01:08;5.50;;;1.67;;
38879;SDS011;25887;30.194;-97.880;2023-05-19T03:03:35;3.53;;;1.77;;
38879;SDS011;25887;30.194;-97.880;2023-05-19T03:06:01;2.67;;;1.80;;
38879;SDS011;25887;30.194;-97.880;2023-05-19T03:08:27;5.95;;;2.28;;
38879;SDS011;25887;30.194;-97.880;2023-05-19T03:11:00;2.38;;;2.10;;
38879;SDS011;25887;30.194;-97.880;2023-05-19T03:13:36;3.67;;;2.25;;
38879;SDS011;25887;30.194;-97.880;2023-05-19T03:16:04;3.35;;;2.13;;
38879;SDS011;25887;30.194;-97.880;2023-05-19T03:18:31;7.20;;;2.47;;
38879;SDS011;25887;30.194;-97.880;2023-05-19T03:20:57;3.40;;;2.40;;
38879;SDS011;25887;30.194;-97.880;2023-05-19T03:23:23;3.33;;;2.25;;
38879;SDS011;25887;30.194;-97.880;2023-05-19T03:25:50;4.25;;;1.90;;
38879;SDS011;25887;30.194;-97.880;2023-05-19T03:28:18;5.25;;;2.08;;
38879;SDS011;25887;30.194;-97.880;2023-05-19T03:30:44;2.80;;;2.40;;
38879;SDS011;25887;30.194;-97.880;2023-05-19T03:33:14;2.85;;;2.17;;
38879;SDS011;25887;30.194;-97.880;2023-05-19T03:35:51;4.43;;;2.10;;
38879;SDS011;25887;30.194;-97.880;2023-05-19T03:38:33;4.00;;;1.98;;
38879;SDS011;25887;30.194;-97.880;2023-05-19T03:40:59;4.40;;;2.22;;
38879;SDS011;25887;30.194;-97.880;2023-05-19T03:43:25;3.20;;;2.20;;
38879;SDS011;25887;30.194;-97.880;2023-05-19T03:45:52;3.60;;;2.30;;
38879;SDS011;25887;30.194;-97.880;2023-05-19T03:48:18;3.30;;;2.03;;
38879;SDS011;25887;30.194;-97.880;2023-05-19T03:50:44;2.90;;;2.13;;
38879;SDS011;25887;30.194;-97.880;2023-05-19T03:53:10;3.22;;;2.20;;
38879;SDS011;25887;30.194;-97.880;2023-05-19T03:55:36;2.78;;;2.03;;
38879;SDS011;25887;30.194;-97.880;2023-05-19T03:58:03;6.25;;;1.98;;
38879;SDS011;25887;30.194;-97.880;2023-05-19T04:00:29;2.75;;;2.03;;
38879;SDS011;25887;30.194;-97.880;2023-05-19T04:02:55;2.55;;;1.98;;
38879;SDS011;25887;30.194;-97.880;2023-05-19T04:05:22;3.83;;;2.35;;
38879;SDS011;25887;30.194;-97.880;2023-05-19T04:07:48;3.60;;;1.98;;
38879;SDS011;25887;30.194;-97.880;2023-05-19T04:10:15;3.55;;;2.35;;
38879;SDS011;25887;30.194;-97.880;2023-05-19T04:12:41;2.20;;;1.85;;
38879;SDS011;25887;30.194;-97.880;2023-05-19T04:15:07;6.25;;;2.10;;
38879;SDS011;25887;30.194;-97.880;2023-05-19T04:17:36;6.00;;;1.95;;
38879;SDS011;25887;30.194;-97.880;2023-05-19T04:20:02;2.58;;;2.03;;
38879;SDS011;25887;30.194;-97.880;2023-05-19T04:22:32;2.47;;;2.00;;
38879;SDS011;25887;30.194;-97.880;2023-05-19T04:24:58;1.90;;;1.65;;
38879;SDS011;25887;30.194;-97.880;2023-05-19T04:27:24;2.22;;;2.03;;
38879;SDS011;25887;30.194;-97.880;2023-05-19T04:29:52;2.70;;;2.03;;
38879;SDS011;25887;30.194;-97.880;2023-05-19T04:32:19;7.32;;;1.80;;
38879;SDS011;25887;30.194;-97.880;2023-05-19T04:34:45;6.53;;;1.83;;
38879;SDS011;25887;30.194;-97.880;2023-05-19T04:37:11;2.47;;;2.13;;
38879;SDS011;25887;30.194;-97.880;2023-05-19T04:39:41;5.45;;;1.85;;
38879;SDS011;25887;30.194;-97.880;2023-05-19T04:42:09;2.90;;;1.90;;
38879;SDS011;25887;30.194;-97.880;2023-05-19T04:44:36;1.92;;;1.77;;
38879;SDS011;25887;30.194;-97.880;2023-05-19T04:47:05;2.78;;;1.95;;
38879;SDS011;25887;30.194;-97.880;2023-05-19T04:49:33;1.90;;;1.70;;
38879;SDS011;25887;30.194;-97.880;2023-05-19T04:52:19;4.43;;;2.17;;
38879;SDS011;25887;30.194;-97.880;2023-05-19T04:54:46;2.50;;;1.90;;
38879;SDS011;25887;30.194;-97.880;2023-05-19T04:57:12;3.85;;;2.00;;
38879;SDS011;25887;30.194;-97.880;2023-05-19T04:59:39;2.38;;;1.95;;
38879;SDS011;25887;30.194;-97.880;2023-05-19T05:02:05;3.92;;;2.00;;
38879;SDS011;25887;30.194;-97.880;2023-05-19T05:04:31;2.95;;;2.00;;
38879;SDS011;25887;30.194;-97.880;2023-05-19T05:06:57;2.67;;;2.00;;
38879;SDS011;25887;30.194;-97.880;2023-05-19T05:09:23;2.45;;;1.58;;
38879;SDS011;25887;30.194;-97.880;2023-05-19T05:11:50;5.43;;;2.08;;
38879;SDS011;25887;30.194;-97.880;2023-05-19T05:14:16;2.22;;;1.90;;
38879;SDS011;25887;30.194;-97.880;2023-05-19T05:16:43;2.42;;;1.88;;
38879;SDS011;25887;30.194;-97.880;2023-05-19T05:19:12;2.15;;;1.80;;
38879;SDS011;25887;30.194;-97.880;2023-05-19T05:21:42;4.80;;;2.10;;
38879;SDS011;25887;30.194;-97.880;2023-05-19T05:24:10;2.45;;;1.80;;
38879;SDS011;25887;30.194;-97.880;2023-05-19T05:26:37;2.55;;;1.92;;
38879;SDS011;25887;30.194;-97.880;2023-05-19T05:29:03;2.30;;;1.73;;
38879;SDS011;25887;30.194;-97.880;2023-05-19T05:31:29;2.70;;;2.15;;
38879;SDS011;25887;30.194;-97.880;2023-05-19T05:33:56;7.28;;;2.13;;
38879;SDS011;25887;30.194;-97.880;2023-05-19T05:36:23;2.15;;;1.80;;
38879;SDS011;25887;30.194;-97.880;2023-05-19T05:38:49;4.70;;;2.33;;
38879;SDS011;25887;30.194;-97.880;2023-05-19T05:41:15;3.00;;;2.33;;
38879;SDS011;25887;30.194;-97.880;2023-05-19T05:43:42;4.95;;;2.10;;
38879;SDS011;25887;30.194;-97.880;2023-05-19T05:46:08;2.58;;;1.83;;
38879;SDS011;25887;30.194;-97.880;2023-05-19T05:48:34;3.17;;;2.35;;
38879;SDS011;25887;30.194;-97.880;2023-05-19T05:51:00;3.35;;;1.83;;
38879;SDS011;25887;30.194;-97.880;2023-05-19T05:53:28;3.97;;;2.05;;
38879;SDS011;25887;30.194;-97.880;2023-05-19T05:55:56;6.63;;;2.13;;
38879;SDS011;25887;30.194;-97.880;2023-05-19T05:58:23;2.78;;;2.05;;
38879;SDS011;25887;30.194;-97.880;2023-05-19T06:00:49;2.83;;;1.80;;
38879;SDS011;25887;30.194;-97.880;2023-05-19T06:03:15;3.72;;;1.90;;
38879;SDS011;25887;30.194;-97.880;2023-05-19T06:05:41;3.13;;;2.00;;
38879;SDS011;25887;30.194;-97.880;2023-05-19T06:08:08;2.13;;;1.90;;
38879;SDS011;25887;30.194;-97.880;2023-05-19T06:10:34;4.35;;;1.90;;
38879;SDS011;25887;30.194;-97.880;2023-05-19T06:13:02;3.95;;;2.22;;
38879;SDS011;25887;30.194;-97.880;2023-05-19T06:15:29;2.03;;;1.83;;
38879;SDS011;25887;30.194;-97.880;2023-05-19T06:17:55;3.17;;;1.85;;
38879;SDS011;25887;30.194;-97.880;2023-05-19T06:20:21;2.78;;;2.00;;
38879;SDS011;25887;30.194;-97.880;2023-05-19T06:22:47;2.70;;;2.20;;
38879;SDS011;25887;30.194;-97.880;2023-05-19T06:25:15;5.03;;;1.90;;
38879;SDS011;25887;30.194;-97.880;2023-05-19T06:27:41;5.00;;;1.90;;
38879;SDS011;25887;30.194;-97.880;2023-05-19T06:30:07;3.53;;;2.10;;
38879;SDS011;25887;30.194;-97.880;2023-05-19T06:32:34;2.38;;;1.92;;
38879;SDS011;25887;30.194;-97.880;2023-05-19T06:35:00;2.80;;;1.70;;
38879;SDS011;25887;30.194;-97.880;2023-05-19T06:37:27;2.22;;;1.95;;
38879;SDS011;25887;30.194;-97.880;2023-05-19T06:39:53;2.40;;;1.60;;
38879;SDS011;25887;30.194;-97.880;2023-05-19T06:42:21;4.05;;;1.98;;
38879;SDS011;25887;30.194;-97.880;2023-05-19T06:44:51;3.90;;;2.00;;
38879;SDS011;25887;30.194;-97.880;2023-05-19T06:47:17;2.65;;;2.20;;
38879;SDS011;25887;30.194;-97.880;2023-05-19T06:49:44;5.55;;;2.30;;
38879;SDS011;25887;30.194;-97.880;2023-05-19T06:52:10;2.45;;;1.83;;
38879;SDS011;25887;30.194;-97.880;2023-05-19T06:54:36;2.25;;;1.75;;
38879;SDS011;25887;30.194;-97.880;2023-05-19T06:57:03;5.80;;;1.95;;
38879;SDS011;25887;30.194;-97.880;2023-05-19T06:59:29;2.97;;;2.10;;
38879;SDS011;25887;30.194;-97.880;2023-05-19T07:01:55;3.95;;;1.92;;
38879;SDS011;25887;30.194;-97.880;2023-05-19T07:04:21;3.95;;;2.28;;
38879;SDS011;25887;30.194;-97.880;2023-05-19T07:06:48;2.95;;;2.10;;
38879;SDS011;25887;30.194;-97.880;2023-05-19T07:09:14;2.45;;;1.80;;
38879;SDS011;25887;30.194;-97.880;2023-05-19T07:11:41;3.70;;;1.90;;
38879;SDS011;25887;30.194;-97.880;2023-05-19T07:14:07;2.05;;;1.85;;
38879;SDS011;25887;30.194;-97.880;2023-05-19T07:16:33;5.72;;;2.28;;
38879;SDS011;25887;30.194;-97.880;2023-05-19T07:18:59;4.03;;;2.03;;
38879;SDS011;25887;30.194;-97.880;2023-05-19T07:21:25;3.88;;;2.05;;
38879;SDS011;25887;30.194;-97.880;2023-05-19T07:23:51;2.00;;;1.80;;
38879;SDS011;25887;30.194;-97.880;2023-05-19T07:26:18;5.68;;;2.03;;
38879;SDS011;25887;30.194;-97.880;2023-05-19T07:28:44;2.83;;;2.20;;
38879;SDS011;25887;30.194;-97.880;2023-05-19T07:31:10;3.03;;;2.03;;
38879;SDS011;25887;30.194;-97.880;2023-05-19T07:33:36;5.65;;;2.30;;
38879;SDS011;25887;30.194;-97.880;2023-05-19T07:36:02;3.90;;;2.30;;
38879;SDS011;25887;30.194;-97.880;2023-05-19T07:38:29;3.25;;;2.13;;
38879;SDS011;25887;30.194;-97.880;2023-05-19T07:40:58;2.63;;;2.05;;
38879;SDS011;25887;30.194;-97.880;2023-05-19T07:43:27;2.63;;;1.90;;
38879;SDS011;25887;30.194;-97.880;2023-05-19T07:45:54;2.17;;;1.95;;
38879;SDS011;25887;30.194;-97.880;2023-05-19T07:48:23;3.08;;;2.05;;
38879;SDS011;25887;30.194;-97.880;2023-05-19T07:50:51;3.00;;;2.22;;
38879;SDS011;25887;30.194;-97.880;2023-05-19T07:53:18;3.10;;;2.00;;
38879;SDS011;25887;30.194;-97.880;2023-05-19T07:55:46;3.17;;;2.20;;
38879;SDS011;25887;30.194;-97.880;2023-05-19T07:58:13;2.55;;;1.98;;
38879;SDS011;25887;30.194;-97.880;2023-05-19T08:00:39;3.83;;;2.30;;
38879;SDS011;25887;30.194;-97.880;2023-05-19T08:03:10;2.53;;;1.95;;
38879;SDS011;25887;30.194;-97.880;2023-05-19T08:05:37;3.65;;;2.10;;
38879;SDS011;25887;30.194;-97.880;2023-05-19T08:08:03;3.70;;;2.25;;
38879;SDS011;25887;30.194;-97.880;2023-05-19T08:10:29;8.57;;;2.58;;
38879;SDS011;25887;30.194;-97.880;2023-05-19T08:12:56;3.25;;;1.98;;
38879;SDS011;25887;30.194;-97.880;2023-05-19T08:15:22;5.13;;;2.20;;
38879;SDS011;25887;30.194;-97.880;2023-05-19T08:17:49;3.85;;;1.90;;
38879;SDS011;25887;30.194;-97.880;2023-05-19T08:20:15;3.97;;;2.10;;
38879;SDS011;25887;30.194;-97.880;2023-05-19T08:22:42;5.63;;;2.00;;
38879;SDS011;25887;30.194;-97.880;2023-05-19T08:25:08;3.90;;;2.33;;
38879;SDS011;25887;30.194;-97.880;2023-05-19T08:27:34;7.82;;;2.00;;
38879;SDS011;25887;30.194;-97.880;2023-05-19T08:30:00;4.45;;;1.90;;
38879;SDS011;25887;30.194;-97.880;2023-05-19T08:32:26;4.63;;;2.40;;
38879;SDS011;25887;30.194;-97.880;2023-05-19T08:34:52;2.50;;;2.15;;
38879;SDS011;25887;30.194;-97.880;2023-05-19T08:37:19;10.05;;;2.33;;
38879;SDS011;25887;30.194;-97.880;2023-05-19T08:39:45;3.38;;;2.00;;
38879;SDS011;25887;30.194;-97.880;2023-05-19T08:42:11;5.70;;;2.00;;
38879;SDS011;25887;30.194;-97.880;2023-05-19T08:44:38;2.97;;;2.13;;
38879;SDS011;25887;30.194;-97.880;2023-05-19T08:47:06;2.58;;;2.08;;
38879;SDS011;25887;30.194;-97.880;2023-05-19T08:49:41;2.10;;;1.83;;
38879;SDS011;25887;30.194;-97.880;2023-05-19T08:55:14;2.70;;;1.95;;
38879;SDS011;25887;30.194;-97.880;2023-05-19T08:57:53;5.47;;;2.20;;
38879;SDS011;25887;30.194;-97.880;2023-05-19T09:00:21;3.40;;;1.88;;
38879;SDS011;25887;30.194;-97.880;2023-05-19T09:02:48;3.97;;;2.00;;
38879;SDS011;25887;30.194;-97.880;2023-05-19T09:05:18;4.88;;;2.00;;
38879;SDS011;25887;30.194;-97.880;2023-05-19T09:07:44;3.38;;;1.98;;
38879;SDS011;25887;30.194;-97.880;2023-05-19T09:10:12;3.67;;;1.70;;
38879;SDS011;25887;30.194;-97.880;2023-05-19T09:12:41;2.08;;;1.80;;
38879;SDS011;25887;30.194;-97.880;2023-05-19T09:15:16;3.30;;;2.10;;
38879;SDS011;25887;30.194;-97.880;2023-05-19T09:17:46;3.08;;;1.65;;
38879;SDS011;25887;30.194;-97.880;2023-05-19T09:20:13;3.50;;;2.00;;
38879;SDS011;25887;30.194;-97.880;2023-05-19T09:22:41;4.13;;;1.95;;
38879;SDS011;25887;30.194;-97.880;2023-05-19T09:25:21;2.53;;;1.63;;
38879;SDS011;25887;30.194;-97.880;2023-05-19T09:27:48;2.40;;;1.70;;
38879;SDS011;25887;30.194;-97.880;2023-05-19T09:30:17;3.40;;;1.88;;
38879;SDS011;25887;30.194;-97.880;2023-05-19T09:32:43;2.83;;;1.67;;
38879;SDS011;25887;30.194;-97.880;2023-05-19T09:35:11;2.85;;;1.60;;
38879;SDS011;25887;30.194;-97.880;2023-05-19T09:37:38;2.45;;;1.80;;
38879;SDS011;25887;30.194;-97.880;2023-05-19T09:40:06;2.65;;;1.73;;
38879;SDS011;25887;30.194;-97.880;2023-05-19T09:42:38;2.60;;;1.45;;
38879;SDS011;25887;30.194;-97.880;2023-05-19T09:45:06;2.47;;;1.60;;
38879;SDS011;25887;30.194;-97.880;2023-05-19T09:47:39;1.85;;;1.45;;
38879;SDS011;25887;30.194;-97.880;2023-05-19T09:50:09;2.17;;;1.70;;
38879;SDS011;25887;30.194;-97.880;2023-05-19T09:52:37;5.07;;;1.88;;
38879;SDS011;25887;30.194;-97.880;2023-05-19T09:55:07;5.00;;;2.05;;
38879;SDS011;25887;30.194;-97.880;2023-05-19T09:57:36;6.28;;;1.85;;
38879;SDS011;25887;30.194;-97.880;2023-05-19T10:00:03;1.90;;;1.50;;
38879;SDS011;25887;30.194;-97.880;2023-05-19T10:02:36;3.45;;;1.90;;
38879;SDS011;25887;30.194;-97.880;2023-05-19T10:08:32;5.57;;;1.47;;
38879;SDS011;25887;30.194;-97.880;2023-05-19T10:11:00;2.70;;;1.80;;
38879;SDS011;25887;30.194;-97.880;2023-05-19T10:13:28;4.28;;;1.67;;
38879;SDS011;25887;30.194;-97.880;2023-05-19T10:15:55;4.40;;;1.75;;
38879;SDS011;25887;30.194;-97.880;2023-05-19T10:18:22;3.47;;;1.88;;
38879;SDS011;25887;30.194;-97.880;2023-05-19T10:20:51;1.83;;;1.52;;
38879;SDS011;25887;30.194;-97.880;2023-05-19T10:23:18;2.50;;;1.70;;
38879;SDS011;25887;30.194;-97.880;2023-05-19T10:25:46;3.63;;;1.67;;
38879;SDS011;25887;30.194;-97.880;2023-05-19T10:28:14;2.47;;;1.58;;
38879;SDS011;25887;30.194;-97.880;2023-05-19T10:30:45;1.83;;;1.40;;
38879;SDS011;25887;30.194;-97.880;2023-05-19T10:33:14;3.08;;;1.52;;
38879;SDS011;25887;30.194;-97.880;2023-05-19T10:41:34;2.80;;;1.88;;
38879;SDS011;25887;30.194;-97.880;2023-05-19T10:47:13;3.30;;;1.45;;
38879;SDS011;25887;30.194;-97.880;2023-05-19T10:49:39;1.55;;;1.42;;
38879;SDS011;25887;30.194;-97.880;2023-05-19T10:52:21;1.70;;;1.40;;
38879;SDS011;25887;30.194;-97.880;2023-05-19T10:54:53;3.17;;;1.80;;
38879;SDS011;25887;30.194;-97.880;2023-05-19T10:57:26;2.08;;;1.42;;
38879;SDS011;25887;30.194;-97.880;2023-05-19T10:59:54;3.55;;;1.73;;
38879;SDS011;25887;30.194;-97.880;2023-05-19T11:07:42;4.05;;;1.52;;
38879;SDS011;25887;30.194;-97.880;2023-05-19T11:10:09;4.05;;;1.85;;
38879;SDS011;25887;30.194;-97.880;2023-05-19T11:12:39;2.67;;;1.60;;
38879;SDS011;25887;30.194;-97.880;2023-05-19T11:15:13;2.57;;;1.70;;
38879;SDS011;25887;30.194;-97.880;2023-05-19T11:17:41;2.78;;;1.75;;
38879;SDS011;25887;30.194;-97.880;2023-05-19T11:20:23;2.72;;;1.75;;
38879;SDS011;25887;30.194;-97.880;2023-05-19T11:25:46;2.53;;;1.75;;
38879;SDS011;25887;30.194;-97.880;2023-05-19T11:28:19;2.53;;;1.63;;
38879;SDS011;25887;30.194;-97.880;2023-05-19T11:30:52;1.88;;;1.50;;
38879;SDS011;25887;30.194;-97.880;2023-05-19T11:33:21;2.33;;;1.80;;
38879;SDS011;25887;30.194;-97.880;2023-05-19T11:35:57;2.17;;;1.70;;
38879;SDS011;25887;30.194;-97.880;2023-05-19T11:38:23;6.38;;;2.10;;
38879;SDS011;25887;30.194;-97.880;2023-05-19T11:40:54;2.40;;;1.70;;
38879;SDS011;25887;30.194;-97.880;2023-05-19T11:43:22;6.68;;;1.88;;
38879;SDS011;25887;30.194;-97.880;2023-05-19T11:45:53;2.22;;;1.70;;
38879;SDS011;25887;30.194;-97.880;2023-05-19T11:48:20;5.30;;;1.80;;
38879;SDS011;25887;30.194;-97.880;2023-05-19T11:50:46;3.97;;;1.50;;
38879;SDS011;25887;30.194;-97.880;2023-05-19T11:53:13;3.53;;;1.75;;
38879;SDS011;25887;30.194;-97.880;2023-05-19T11:55:46;4.05;;;1.90;;
38879;SDS011;25887;30.194;-97.880;2023-05-19T11:58:12;4.38;;;1.83;;
38879;SDS011;25887;30.194;-97.880;2023-05-19T12:00:39;2.20;;;1.60;;
38879;SDS011;25887;30.194;-97.880;2023-05-19T12:03:07;4.25;;;1.90;;
38879;SDS011;25887;30.194;-97.880;2023-05-19T12:05:39;3.55;;;1.98;;
38879;SDS011;25887;30.194;-97.880;2023-05-19T12:08:10;3.63;;;2.10;;
38879;SDS011;25887;30.194;-97.880;2023-05-19T12:10:37;3.08;;;2.00;;
38879;SDS011;25887;30.194;-97.880;2023-05-19T12:13:04;8.15;;;2.10;;
38879;SDS011;25887;30.194;-97.880;2023-05-19T12:15:33;4.25;;;1.90;;
38879;SDS011;25887;30.194;-97.880;2023-05-19T12:17:59;3.55;;;2.03;;
38879;SDS011;25887;30.194;-97.880;2023-05-19T12:20:27;5.97;;;2.10;;
38879;SDS011;25887;30.194;-97.880;2023-05-19T12:22:59;4.07;;;1.80;;
38879;SDS011;25887;30.194;-97.880;2023-05-19T12:25:32;3.78;;;1.92;;
38879;SDS011;25887;30.194;-97.880;2023-05-19T12:27:59;4.13;;;1.90;;
38879;SDS011;25887;30.194;-97.880;2023-05-19T12:30:29;3.17;;;1.90;;
38879;SDS011;25887;30.194;-97.880;2023-05-19T12:32:56;2.70;;;1.60;;
38879;SDS011;25887;30.194;-97.880;2023-05-19T12:35:26;3.00;;;2.25;;
38879;SDS011;25887;30.194;-97.880;2023-05-19T12:37:53;5.43;;;2.10;;
38879;SDS011;25887;30.194;-97.880;2023-05-19T12:40:19;6.50;;;2.65;;
38879;SDS011;25887;30.194;-97.880;2023-05-19T12:42:46;6.63;;;2.10;;
38879;SDS011;25887;30.194;-97.880;2023-05-19T12:45:18;3.97;;;2.00;;
38879;SDS011;25887;30.194;-97.880;2023-05-19T12:47:50;6.45;;;2.28;;
38879;SDS011;25887;30.194;-97.880;2023-05-19T12:52:56;2.35;;;1.50;;
38879;SDS011;25887;30.194;-97.880;2023-05-19T12:55:24;4.60;;;1.88;;
38879;SDS011;25887;30.194;-97.880;2023-05-19T12:57:51;2.83;;;2.25;;
38879;SDS011;25887;30.194;-97.880;2023-05-19T13:00:24;2.75;;;2.13;;
38879;SDS011;25887;30.194;-97.880;2023-05-19T13:02:57;8.38;;;1.98;;
38879;SDS011;25887;30.194;-97.880;2023-05-19T13:05:27;6.03;;;1.60;;
38879;SDS011;25887;30.194;-97.880;2023-05-19T13:07:58;2.90;;;1.83;;
38879;SDS011;25887;30.194;-97.880;2023-05-19T13:10:27;3.63;;;2.05;;
38879;SDS011;25887;30.194;-97.880;2023-05-19T13:12:55;7.50;;;1.90;;
38879;SDS011;25887;30.194;-97.880;2023-05-19T13:15:23;3.65;;;1.70;;
38879;SDS011;25887;30.194;-97.880;2023-05-19T13:17:51;2.90;;;1.80;;
38879;SDS011;25887;30.194;-97.880;2023-05-19T13:20:18;3.75;;;1.90;;
38879;SDS011;25887;30.194;-97.880;2023-05-19T13:22:48;4.60;;;2.10;;
38879;SDS011;25887;30.194;-97.880;2023-05-19T13:25:15;8.95;;;2.15;;
38879;SDS011;25887;30.194;-97.880;2023-05-19T13:27:42;3.35;;;1.88;;
38879;SDS011;25887;30.194;-97.880;2023-05-19T13:30:10;3.60;;;2.00;;
38879;SDS011;25887;30.194;-97.880;2023-05-19T13:32:37;3.28;;;2.05;;
38879;SDS011;25887;30.194;-97.880;2023-05-19T13:35:03;2.42;;;1.60;;
38879;SDS011;25887;30.194;-97.880;2023-05-19T13:37:30;2.83;;;1.83;;
38879;SDS011;25887;30.194;-97.880;2023-05-19T13:39:56;4.35;;;1.80;;
38879;SDS011;25887;30.194;-97.880;2023-05-19T13:42:22;3.42;;;2.08;;
38879;SDS011;25887;30.194;-97.880;2023-05-19T13:44:48;3.92;;;1.95;;
38879;SDS011;25887;30.194;-97.880;2023-05-19T13:47:18;2.20;;;1.60;;
38879;SDS011;25887;30.194;-97.880;2023-05-19T13:49:44;3.20;;;1.63;;
38879;SDS011;25887;30.194;-97.880;2023-05-19T13:52:10;2.33;;;1.98;;
38879;SDS011;25887;30.194;-97.880;2023-05-19T13:54:37;3.58;;;1.90;;
38879;SDS011;25887;30.194;-97.880;2023-05-19T13:57:03;4.15;;;1.92;;
38879;SDS011;25887;30.194;-97.880;2023-05-19T13:59:30;8.25;;;1.75;;
38879;SDS011;25887;30.194;-97.880;2023-05-19T14:01:57;3.20;;;1.77;;
38879;SDS011;25887;30.194;-97.880;2023-05-19T14:04:23;2.42;;;2.10;;
38879;SDS011;25887;30.194;-97.880;2023-05-19T14:06:49;4.50;;;1.80;;
38879;SDS011;25887;30.194;-97.880;2023-05-19T14:09:15;4.75;;;1.90;;
38879;SDS011;25887;30.194;-97.880;2023-05-19T14:11:42;4.13;;;1.65;;
38879;SDS011;25887;30.194;-97.880;2023-05-19T14:14:09;2.85;;;1.60;;
38879;SDS011;25887;30.194;-97.880;2023-05-19T14:16:36;2.88;;;1.80;;
38879;SDS011;25887;30.194;-97.880;2023-05-19T14:19:02;4.05;;;1.80;;
38879;SDS011;25887;30.194;-97.880;2023-05-19T14:21:28;3.47;;;1.70;;
38879;SDS011;25887;30.194;-97.880;2023-05-19T14:23:55;2.88;;;1.70;;
38879;SDS011;25887;30.194;-97.880;2023-05-19T14:26:22;5.72;;;1.88;;
38879;SDS011;25887;30.194;-97.880;2023-05-19T14:28:48;3.00;;;1.77;;
38879;SDS011;25887;30.194;-97.880;2023-05-19T14:31:15;4.22;;;1.77;;
38879;SDS011;25887;30.194;-97.880;2023-05-19T14:33:42;7.38;;;1.92;;
38879;SDS011;25887;30.194;-97.880;2023-05-19T14:36:08;2.40;;;1.30;;
38879;SDS011;25887;30.194;-97.880;2023-05-19T14:38:35;2.30;;;1.50;;
38879;SDS011;25887;30.194;-97.880;2023-05-19T14:41:01;4.15;;;1.80;;
38879;SDS011;25887;30.194;-97.880;2023-05-19T14:43:27;1.90;;;1.40;;
38879;SDS011;25887;30.194;-97.880;2023-05-19T14:45:54;3.58;;;1.42;;
38879;SDS011;25887;30.194;-97.880;2023-05-19T14:48:21;2.53;;;1.63;;
38879;SDS011;25887;30.194;-97.880;2023-05-19T14:50:47;2.95;;;1.50;;
38879;SDS011;25887;30.194;-97.880;2023-05-19T14:53:14;2.38;;;1.63;;
38879;SDS011;25887;30.194;-97.880;2023-05-19T14:55:41;2.45;;;1.38;;
38879;SDS011;25887;30.194;-97.880;2023-05-19T14:58:07;2.75;;;1.55;;
38879;SDS011;25887;30.194;-97.880;2023-05-19T15:00:34;4.43;;;1.48;;
38879;SDS011;25887;30.194;-97.880;2023-05-19T15:03:00;1.98;;;1.45;;
38879;SDS011;25887;30.194;-97.880;2023-05-19T15:05:27;2.35;;;1.52;;
38879;SDS011;25887;30.194;-97.880;2023-05-19T15:07:53;4.07;;;1.70;;
38879;SDS011;25887;30.194;-97.880;2023-05-19T15:10:19;1.42;;;1.30;;